sensor_id;sensor_type;location;lat;lon;timestamp;P1;durP1;ratioP1;P2;durP2;ratioP2
11490;SDS011;5802;52.832;4.758;2023-03-29T00:00:44;3.38;;;1.10;;
11490;SDS011;5802;52.832;4.758;2023-03-29T00:03:10;5.45;;;1.40;;
11490;SDS011;5802;52.832;4.758;2023-03-29T00:05:38;2.67;;;0.95;;
11490;SDS011;5802;52.832;4.758;2023-03-29T00:08:05;1.63;;;0.95;;
11490;SDS011;5802;52.832;4.758;2023-03-29T00:10:32;6.22;;;1.25;;
11490;SDS011;5802;52.832;4.758;2023-03-29T00:13:00;2.03;;;0.90;;
11490;SDS011;5802;52.832;4.758;2023-03-29T00:15:28;1.90;;;0.77;;
11490;SDS011;5802;52.832;4.758;2023-03-29T00:17:55;4.32;;;1.48;;
11490;SDS011;5802;52.832;4.758;2023-03-29T00:20:22;2.30;;;1.10;;
11490;SDS011;5802;52.832;4.758;2023-03-29T00:22:49;2.78;;;1.02;;
11490;SDS011;5802;52.832;4.758;2023-03-29T00:25:15;3.40;;;1.17;;
11490;SDS011;5802;52.832;4.758;2023-03-29T00:27:42;3.22;;;1.20;;
11490;SDS011;5802;52.832;4.758;2023-03-29T00:30:09;1.55;;;1.00;;
11490;SDS011;5802;52.832;4.758;2023-03-29T00:32:39;2.65;;;1.10;;
11490;SDS011;5802;52.832;4.758;2023-03-29T00:35:06;2.90;;;1.10;;
11490;SDS011;5802;52.832;4.758;2023-03-29T00:37:33;5.85;;;0.98;;
11490;SDS011;5802;52.832;4.758;2023-03-29T00:40:00;5.93;;;1.08;;
11490;SDS011;5802;52.832;4.758;2023-03-29T00:42:29;3.20;;;1.00;;
11490;SDS011;5802;52.832;4.758;2023-03-29T00:45:00;6.13;;;1.35;;
11490;SDS011;5802;52.832;4.758;2023-03-29T00:47:31;2.72;;;1.00;;
11490;SDS011;5802;52.832;4.758;2023-03-29T00:50:05;2.50;;;1.00;;
11490;SDS011;5802;52.832;4.758;2023-03-29T00:52:37;2.10;;;1.05;;
11490;SDS011;5802;52.832;4.758;2023-03-29T00:55:07;1.05;;;0.70;;
11490;SDS011;5802;52.832;4.758;2023-03-29T00:57:39;1.90;;;1.17;;
11490;SDS011;5802;52.832;4.758;2023-03-29T01:00:07;3.92;;;1.10;;
11490;SDS011;5802;52.832;4.758;2023-03-29T01:02:36;1.27;;;0.88;;
11490;SDS011;5802;52.832;4.758;2023-03-29T01:05:07;1.67;;;0.95;;
11490;SDS011;5802;52.832;4.758;2023-03-29T01:07:39;3.17;;;0.80;;
11490;SDS011;5802;52.832;4.758;2023-03-29T01:10:13;1.70;;;0.98;;
11490;SDS011;5802;52.832;4.758;2023-03-29T01:12:45;1.23;;;0.93;;
11490;SDS011;5802;52.832;4.758;2023-03-29T01:15:16;1.05;;;0.90;;
11490;SDS011;5802;52.832;4.758;2023-03-29T01:17:45;3.00;;;1.30;;
11490;SDS011;5802;52.832;4.758;2023-03-29T01:20:17;2.63;;;1.10;;
11490;SDS011;5802;52.832;4.758;2023-03-29T01:22:50;2.45;;;0.80;;
11490;SDS011;5802;52.832;4.758;2023-03-29T01:25:31;1.67;;;0.80;;
11490;SDS011;5802;52.832;4.758;2023-03-29T01:28:06;3.10;;;1.10;;
11490;SDS011;5802;52.832;4.758;2023-03-29T01:30:36;2.55;;;1.10;;
11490;SDS011;5802;52.832;4.758;2023-03-29T01:33:08;1.40;;;0.82;;
11490;SDS011;5802;52.832;4.758;2023-03-29T01:35:46;1.17;;;0.90;;
11490;SDS011;5802;52.832;4.758;2023-03-29T01:38:17;2.50;;;0.90;;
11490;SDS011;5802;52.832;4.758;2023-03-29T01:40:50;1.85;;;0.90;;
11490;SDS011;5802;52.832;4.758;2023-03-29T01:43:21;2.95;;;1.10;;
11490;SDS011;5802;52.832;4.758;2023-03-29T01:45:54;1.85;;;0.90;;
11490;SDS011;5802;52.832;4.758;2023-03-29T01:48:27;2.38;;;1.00;;
11490;SDS011;5802;52.832;4.758;2023-03-29T01:50:57;1.52;;;0.80;;
11490;SDS011;5802;52.832;4.758;2023-03-29T01:53:28;1.48;;;0.90;;
11490;SDS011;5802;52.832;4.758;2023-03-29T01:56:01;2.03;;;0.90;;
11490;SDS011;5802;52.832;4.758;2023-03-29T01:58:34;1.13;;;0.70;;
11490;SDS011;5802;52.832;4.758;2023-03-29T02:01:03;2.60;;;1.08;;
11490;SDS011;5802;52.832;4.758;2023-03-29T02:03:34;2.25;;;0.90;;
11490;SDS011;5802;52.832;4.758;2023-03-29T02:06:07;4.03;;;0.88;;
11490;SDS011;5802;52.832;4.758;2023-03-29T02:08:35;1.63;;;0.90;;
11490;SDS011;5802;52.832;4.758;2023-03-29T02:11:04;4.05;;;0.90;;
11490;SDS011;5802;52.832;4.758;2023-03-29T02:13:33;2.13;;;0.98;;
11490;SDS011;5802;52.832;4.758;2023-03-29T02:16:02;1.80;;;0.88;;
11490;SDS011;5802;52.832;4.758;2023-03-29T02:18:29;5.32;;;0.93;;
11490;SDS011;5802;52.832;4.758;2023-03-29T02:20:56;1.35;;;0.90;;
11490;SDS011;5802;52.832;4.758;2023-03-29T02:23:25;1.77;;;1.00;;
11490;SDS011;5802;52.832;4.758;2023-03-29T02:25:58;1.92;;;1.08;;
11490;SDS011;5802;52.832;4.758;2023-03-29T02:28:26;1.75;;;1.02;;
11490;SDS011;5802;52.832;4.758;2023-03-29T02:30:56;1.08;;;0.80;;
11490;SDS011;5802;52.832;4.758;2023-03-29T02:33:29;3.53;;;0.80;;
11490;SDS011;5802;52.832;4.758;2023-03-29T02:36:01;1.75;;;0.90;;
11490;SDS011;5802;52.832;4.758;2023-03-29T02:38:34;1.02;;;0.80;;
11490;SDS011;5802;52.832;4.758;2023-03-29T02:41:03;1.20;;;0.82;;
11490;SDS011;5802;52.832;4.758;2023-03-29T02:43:31;1.20;;;0.90;;
11490;SDS011;5802;52.832;4.758;2023-03-29T02:46:01;1.92;;;0.90;;
11490;SDS011;5802;52.832;4.758;2023-03-29T02:48:30;1.85;;;0.95;;
11490;SDS011;5802;52.832;4.758;2023-03-29T02:51:00;1.48;;;0.88;;
11490;SDS011;5802;52.832;4.758;2023-03-29T02:53:31;1.95;;;0.90;;
11490;SDS011;5802;52.832;4.758;2023-03-29T02:56:02;2.72;;;1.05;;
11490;SDS011;5802;52.832;4.758;2023-03-29T02:58:29;1.48;;;0.90;;
11490;SDS011;5802;52.832;4.758;2023-03-29T03:00:57;1.35;;;0.75;;
11490;SDS011;5802;52.832;4.758;2023-03-29T03:03:29;2.05;;;0.90;;
11490;SDS011;5802;52.832;4.758;2023-03-29T03:05:55;1.98;;;1.13;;
11490;SDS011;5802;52.832;4.758;2023-03-29T03:08:22;1.35;;;1.02;;
11490;SDS011;5802;52.832;4.758;2023-03-29T03:10:49;1.98;;;0.88;;
11490;SDS011;5802;52.832;4.758;2023-03-29T03:13:16;2.53;;;0.93;;
11490;SDS011;5802;52.832;4.758;2023-03-29T03:15:43;1.38;;;0.88;;
11490;SDS011;5802;52.832;4.758;2023-03-29T03:18:14;1.45;;;0.80;;
11490;SDS011;5802;52.832;4.758;2023-03-29T03:20:41;1.63;;;0.68;;
11490;SDS011;5802;52.832;4.758;2023-03-29T03:23:10;1.60;;;0.90;;
11490;SDS011;5802;52.832;4.758;2023-03-29T03:25:37;2.33;;;0.98;;
11490;SDS011;5802;52.832;4.758;2023-03-29T03:28:04;1.90;;;0.90;;
11490;SDS011;5802;52.832;4.758;2023-03-29T03:30:31;1.38;;;0.90;;
11490;SDS011;5802;52.832;4.758;2023-03-29T03:32:58;1.27;;;1.00;;
11490;SDS011;5802;52.832;4.758;2023-03-29T03:35:26;1.50;;;0.88;;
11490;SDS011;5802;52.832;4.758;2023-03-29T03:37:53;1.30;;;0.73;;
11490;SDS011;5802;52.832;4.758;2023-03-29T03:40:20;1.17;;;0.80;;
11490;SDS011;5802;52.832;4.758;2023-03-29T03:42:46;1.55;;;1.10;;
11490;SDS011;5802;52.832;4.758;2023-03-29T03:45:13;1.98;;;1.20;;
11490;SDS011;5802;52.832;4.758;2023-03-29T03:47:40;1.13;;;0.90;;
11490;SDS011;5802;52.832;4.758;2023-03-29T03:50:07;1.45;;;1.00;;
11490;SDS011;5802;52.832;4.758;2023-03-29T03:52:36;1.25;;;0.70;;
11490;SDS011;5802;52.832;4.758;2023-03-29T03:55:03;1.77;;;0.98;;
11490;SDS011;5802;52.832;4.758;2023-03-29T03:57:30;3.72;;;1.00;;
11490;SDS011;5802;52.832;4.758;2023-03-29T04:00:01;2.50;;;1.02;;
11490;SDS011;5802;52.832;4.758;2023-03-29T04:02:34;1.45;;;0.82;;
11490;SDS011;5802;52.832;4.758;2023-03-29T04:05:01;1.02;;;0.80;;
11490;SDS011;5802;52.832;4.758;2023-03-29T04:07:28;1.95;;;1.10;;
11490;SDS011;5802;52.832;4.758;2023-03-29T04:09:56;2.03;;;1.00;;
11490;SDS011;5802;52.832;4.758;2023-03-29T04:12:23;1.10;;;1.00;;
11490;SDS011;5802;52.832;4.758;2023-03-29T04:14:50;3.22;;;0.95;;
11490;SDS011;5802;52.832;4.758;2023-03-29T04:17:16;1.60;;;0.82;;
11490;SDS011;5802;52.832;4.758;2023-03-29T04:19:43;2.05;;;1.00;;
11490;SDS011;5802;52.832;4.758;2023-03-29T04:22:10;2.67;;;1.10;;
11490;SDS011;5802;52.832;4.758;2023-03-29T04:24:36;2.45;;;0.93;;
11490;SDS011;5802;52.832;4.758;2023-03-29T04:27:04;2.30;;;1.00;;
11490;SDS011;5802;52.832;4.758;2023-03-29T04:29:31;1.65;;;0.95;;
11490;SDS011;5802;52.832;4.758;2023-03-29T04:31:58;1.35;;;0.88;;
11490;SDS011;5802;52.832;4.758;2023-03-29T04:34:25;2.00;;;0.85;;
11490;SDS011;5802;52.832;4.758;2023-03-29T04:36:51;3.33;;;1.15;;
11490;SDS011;5802;52.832;4.758;2023-03-29T04:39:18;1.25;;;0.85;;
11490;SDS011;5802;52.832;4.758;2023-03-29T04:41:44;1.58;;;1.02;;
11490;SDS011;5802;52.832;4.758;2023-03-29T04:44:12;2.38;;;0.77;;
11490;SDS011;5802;52.832;4.758;2023-03-29T04:46:40;3.13;;;1.00;;
11490;SDS011;5802;52.832;4.758;2023-03-29T04:49:06;1.13;;;0.95;;
11490;SDS011;5802;52.832;4.758;2023-03-29T04:51:33;2.08;;;1.20;;
11490;SDS011;5802;52.832;4.758;2023-03-29T04:54:00;2.08;;;0.90;;
11490;SDS011;5802;52.832;4.758;2023-03-29T04:56:26;2.42;;;1.02;;
11490;SDS011;5802;52.832;4.758;2023-03-29T04:58:53;1.70;;;0.93;;
11490;SDS011;5802;52.832;4.758;2023-03-29T05:01:21;1.73;;;0.98;;
11490;SDS011;5802;52.832;4.758;2023-03-29T05:03:48;2.05;;;0.80;;
11490;SDS011;5802;52.832;4.758;2023-03-29T05:06:14;3.35;;;1.00;;
11490;SDS011;5802;52.832;4.758;2023-03-29T05:08:41;1.40;;;0.82;;
11490;SDS011;5802;52.832;4.758;2023-03-29T05:11:09;1.42;;;1.10;;
11490;SDS011;5802;52.832;4.758;2023-03-29T05:13:37;2.13;;;1.10;;
11490;SDS011;5802;52.832;4.758;2023-03-29T05:16:04;1.30;;;0.90;;
11490;SDS011;5802;52.832;4.758;2023-03-29T05:18:34;1.63;;;1.17;;
11490;SDS011;5802;52.832;4.758;2023-03-29T05:21:01;1.52;;;0.88;;
11490;SDS011;5802;52.832;4.758;2023-03-29T05:23:28;2.33;;;1.08;;
11490;SDS011;5802;52.832;4.758;2023-03-29T05:25:55;0.98;;;0.77;;
11490;SDS011;5802;52.832;4.758;2023-03-29T05:28:21;1.88;;;1.20;;
11490;SDS011;5802;52.832;4.758;2023-03-29T05:30:57;1.35;;;1.10;;
11490;SDS011;5802;52.832;4.758;2023-03-29T05:33:24;1.33;;;1.20;;
11490;SDS011;5802;52.832;4.758;2023-03-29T05:35:58;2.00;;;1.02;;
11490;SDS011;5802;52.832;4.758;2023-03-29T05:38:25;1.52;;;0.90;;
11490;SDS011;5802;52.832;4.758;2023-03-29T05:40:52;1.85;;;1.00;;
11490;SDS011;5802;52.832;4.758;2023-03-29T05:43:18;2.03;;;0.90;;
11490;SDS011;5802;52.832;4.758;2023-03-29T05:45:45;1.35;;;0.90;;
11490;SDS011;5802;52.832;4.758;2023-03-29T05:48:12;2.40;;;1.15;;
11490;SDS011;5802;52.832;4.758;2023-03-29T05:50:39;1.50;;;1.17;;
11490;SDS011;5802;52.832;4.758;2023-03-29T05:53:07;1.30;;;0.75;;
11490;SDS011;5802;52.832;4.758;2023-03-29T05:55:34;1.98;;;0.93;;
11490;SDS011;5802;52.832;4.758;2023-03-29T05:58:01;1.95;;;1.20;;
11490;SDS011;5802;52.832;4.758;2023-03-29T06:00:27;1.40;;;0.82;;
11490;SDS011;5802;52.832;4.758;2023-03-29T06:02:55;2.13;;;0.90;;
11490;SDS011;5802;52.832;4.758;2023-03-29T06:05:22;1.08;;;0.80;;
11490;SDS011;5802;52.832;4.758;2023-03-29T06:07:49;1.50;;;1.02;;
11490;SDS011;5802;52.832;4.758;2023-03-29T06:10:18;1.58;;;1.20;;
11490;SDS011;5802;52.832;4.758;2023-03-29T06:12:45;1.73;;;1.23;;
11490;SDS011;5802;52.832;4.758;2023-03-29T06:15:13;1.30;;;1.00;;
11490;SDS011;5802;52.832;4.758;2023-03-29T06:17:40;3.05;;;1.20;;
11490;SDS011;5802;52.832;4.758;2023-03-29T06:20:09;2.47;;;1.00;;
11490;SDS011;5802;52.832;4.758;2023-03-29T06:22:36;7.70;;;1.15;;
11490;SDS011;5802;52.832;4.758;2023-03-29T06:25:03;4.13;;;1.50;;
11490;SDS011;5802;52.832;4.758;2023-03-29T06:27:31;1.48;;;1.00;;
11490;SDS011;5802;52.832;4.758;2023-03-29T06:29:58;2.95;;;1.08;;
11490;SDS011;5802;52.832;4.758;2023-03-29T06:32:25;1.88;;;1.10;;
11490;SDS011;5802;52.832;4.758;2023-03-29T06:34:52;2.75;;;1.00;;
11490;SDS011;5802;52.832;4.758;2023-03-29T06:37:19;1.83;;;1.27;;
11490;SDS011;5802;52.832;4.758;2023-03-29T06:39:47;2.33;;;1.20;;
11490;SDS011;5802;52.832;4.758;2023-03-29T06:42:16;2.25;;;1.15;;
11490;SDS011;5802;52.832;4.758;2023-03-29T06:44:45;1.67;;;0.98;;
11490;SDS011;5802;52.832;4.758;2023-03-29T06:47:12;1.98;;;1.10;;
11490;SDS011;5802;52.832;4.758;2023-03-29T06:49:38;2.17;;;1.33;;
11490;SDS011;5802;52.832;4.758;2023-03-29T06:52:05;1.30;;;1.10;;
11490;SDS011;5802;52.832;4.758;2023-03-29T06:54:32;2.28;;;1.40;;
11490;SDS011;5802;52.832;4.758;2023-03-29T06:56:59;1.55;;;1.00;;
11490;SDS011;5802;52.832;4.758;2023-03-29T06:59:26;3.25;;;1.27;;
11490;SDS011;5802;52.832;4.758;2023-03-29T07:02:04;1.15;;;0.85;;
11490;SDS011;5802;52.832;4.758;2023-03-29T07:04:31;2.78;;;1.10;;
11490;SDS011;5802;52.832;4.758;2023-03-29T07:06:59;1.33;;;1.08;;
11490;SDS011;5802;52.832;4.758;2023-03-29T07:09:26;1.30;;;1.00;;
11490;SDS011;5802;52.832;4.758;2023-03-29T07:11:54;4.20;;;1.27;;
11490;SDS011;5802;52.832;4.758;2023-03-29T07:14:21;2.00;;;1.35;;
11490;SDS011;5802;52.832;4.758;2023-03-29T07:16:50;1.95;;;1.10;;
11490;SDS011;5802;52.832;4.758;2023-03-29T07:19:18;3.60;;;1.83;;
11490;SDS011;5802;52.832;4.758;2023-03-29T07:21:46;2.33;;;0.90;;
11490;SDS011;5802;52.832;4.758;2023-03-29T07:24:13;2.38;;;1.00;;
11490;SDS011;5802;52.832;4.758;2023-03-29T07:26:40;2.85;;;1.27;;
11490;SDS011;5802;52.832;4.758;2023-03-29T07:29:07;2.55;;;1.15;;
11490;SDS011;5802;52.832;4.758;2023-03-29T07:31:34;4.68;;;1.30;;
11490;SDS011;5802;52.832;4.758;2023-03-29T07:34:04;2.30;;;1.35;;
11490;SDS011;5802;52.832;4.758;2023-03-29T07:36:36;2.47;;;0.98;;
11490;SDS011;5802;52.832;4.758;2023-03-29T07:39:03;2.97;;;1.10;;
11490;SDS011;5802;52.832;4.758;2023-03-29T07:41:29;2.00;;;1.17;;
11490;SDS011;5802;52.832;4.758;2023-03-29T07:43:56;3.33;;;1.30;;
11490;SDS011;5802;52.832;4.758;2023-03-29T07:46:26;2.15;;;1.25;;
11490;SDS011;5802;52.832;4.758;2023-03-29T07:48:53;2.33;;;1.00;;
11490;SDS011;5802;52.832;4.758;2023-03-29T07:51:20;1.73;;;1.10;;
11490;SDS011;5802;52.832;4.758;2023-03-29T07:53:48;2.60;;;1.20;;
11490;SDS011;5802;52.832;4.758;2023-03-29T07:56:15;2.75;;;1.40;;
11490;SDS011;5802;52.832;4.758;2023-03-29T07:58:42;1.80;;;1.08;;
11490;SDS011;5802;52.832;4.758;2023-03-29T08:01:08;1.88;;;1.10;;
11490;SDS011;5802;52.832;4.758;2023-03-29T08:03:39;3.72;;;1.40;;
11490;SDS011;5802;52.832;4.758;2023-03-29T08:06:06;1.80;;;1.20;;
11490;SDS011;5802;52.832;4.758;2023-03-29T08:08:33;1.80;;;1.08;;
11490;SDS011;5802;52.832;4.758;2023-03-29T08:11:02;2.28;;;1.00;;
11490;SDS011;5802;52.832;4.758;2023-03-29T08:13:28;2.40;;;1.02;;
11490;SDS011;5802;52.832;4.758;2023-03-29T08:15:56;2.58;;;1.13;;
11490;SDS011;5802;52.832;4.758;2023-03-29T08:18:23;2.75;;;1.17;;
11490;SDS011;5802;52.832;4.758;2023-03-29T08:20:50;2.50;;;1.20;;
11490;SDS011;5802;52.832;4.758;2023-03-29T08:23:16;2.63;;;1.10;;
11490;SDS011;5802;52.832;4.758;2023-03-29T08:25:44;4.47;;;1.27;;
11490;SDS011;5802;52.832;4.758;2023-03-29T08:28:12;2.03;;;1.23;;
11490;SDS011;5802;52.832;4.758;2023-03-29T08:30:39;3.28;;;1.23;;
11490;SDS011;5802;52.832;4.758;2023-03-29T08:33:06;3.22;;;1.25;;
11490;SDS011;5802;52.832;4.758;2023-03-29T08:35:32;2.42;;;1.30;;
11490;SDS011;5802;52.832;4.758;2023-03-29T08:37:59;2.28;;;1.40;;
11490;SDS011;5802;52.832;4.758;2023-03-29T08:40:26;4.57;;;1.60;;
11490;SDS011;5802;52.832;4.758;2023-03-29T08:43:02;1.70;;;1.15;;
11490;SDS011;5802;52.832;4.758;2023-03-29T08:45:40;3.55;;;1.40;;
11490;SDS011;5802;52.832;4.758;2023-03-29T08:48:15;1.98;;;1.10;;
11490;SDS011;5802;52.832;4.758;2023-03-29T08:50:49;2.35;;;1.20;;
11490;SDS011;5802;52.832;4.758;2023-03-29T08:53:18;2.75;;;1.40;;
11490;SDS011;5802;52.832;4.758;2023-03-29T08:55:49;3.40;;;1.30;;
11490;SDS011;5802;52.832;4.758;2023-03-29T08:58:19;3.35;;;1.30;;
11490;SDS011;5802;52.832;4.758;2023-03-29T09:00:51;2.47;;;1.30;;
11490;SDS011;5802;52.832;4.758;2023-03-29T09:03:20;4.63;;;1.50;;
11490;SDS011;5802;52.832;4.758;2023-03-29T09:05:49;7.85;;;1.67;;
11490;SDS011;5802;52.832;4.758;2023-03-29T09:08:21;6.10;;;1.80;;
11490;SDS011;5802;52.832;4.758;2023-03-29T09:10:52;4.85;;;1.67;;
11490;SDS011;5802;52.832;4.758;2023-03-29T09:13:34;5.03;;;1.80;;
11490;SDS011;5802;52.832;4.758;2023-03-29T09:16:12;3.78;;;1.60;;
11490;SDS011;5802;52.832;4.758;2023-03-29T09:18:48;3.58;;;1.65;;
11490;SDS011;5802;52.832;4.758;2023-03-29T09:21:25;4.97;;;1.90;;
11490;SDS011;5802;52.832;4.758;2023-03-29T09:24:03;2.90;;;1.70;;
11490;SDS011;5802;52.832;4.758;2023-03-29T09:26:40;3.40;;;1.90;;
11490;SDS011;5802;52.832;4.758;2023-03-29T09:29:16;5.68;;;2.30;;
11490;SDS011;5802;52.832;4.758;2023-03-29T09:32:10;3.92;;;1.70;;
11490;SDS011;5802;52.832;4.758;2023-03-29T09:34:43;4.22;;;1.92;;
11490;SDS011;5802;52.832;4.758;2023-03-29T09:37:14;4.78;;;1.92;;
11490;SDS011;5802;52.832;4.758;2023-03-29T09:39:47;5.40;;;2.15;;
11490;SDS011;5802;52.832;4.758;2023-03-29T09:42:16;6.15;;;1.80;;
11490;SDS011;5802;52.832;4.758;2023-03-29T09:44:45;3.50;;;1.95;;
11490;SDS011;5802;52.832;4.758;2023-03-29T09:47:17;5.35;;;2.10;;
11490;SDS011;5802;52.832;4.758;2023-03-29T09:49:49;6.57;;;2.05;;
11490;SDS011;5802;52.832;4.758;2023-03-29T09:52:21;2.53;;;1.80;;
11490;SDS011;5802;52.832;4.758;2023-03-29T09:54:48;5.88;;;2.45;;
11490;SDS011;5802;52.832;4.758;2023-03-29T09:57:15;4.45;;;1.98;;
11490;SDS011;5802;52.832;4.758;2023-03-29T09:59:43;4.82;;;2.00;;
11490;SDS011;5802;52.832;4.758;2023-03-29T10:02:12;7.57;;;2.15;;
11490;SDS011;5802;52.832;4.758;2023-03-29T10:04:41;6.47;;;1.95;;
11490;SDS011;5802;52.832;4.758;2023-03-29T10:07:12;4.40;;;2.50;;
11490;SDS011;5802;52.832;4.758;2023-03-29T10:09:43;4.43;;;1.73;;
11490;SDS011;5802;52.832;4.758;2023-03-29T10:12:11;8.70;;;2.10;;
11490;SDS011;5802;52.832;4.758;2023-03-29T10:14:40;7.10;;;2.00;;
11490;SDS011;5802;52.832;4.758;2023-03-29T10:17:11;5.50;;;2.33;;
11490;SDS011;5802;52.832;4.758;2023-03-29T10:19:47;9.07;;;2.70;;
11490;SDS011;5802;52.832;4.758;2023-03-29T10:22:15;7.03;;;2.28;;
11490;SDS011;5802;52.832;4.758;2023-03-29T10:24:46;6.68;;;2.20;;
11490;SDS011;5802;52.832;4.758;2023-03-29T10:27:15;6.15;;;2.75;;
11490;SDS011;5802;52.832;4.758;2023-03-29T10:29:47;7.07;;;2.60;;
11490;SDS011;5802;52.832;4.758;2023-03-29T10:32:15;10.27;;;2.58;;
11490;SDS011;5802;52.832;4.758;2023-03-29T10:34:49;7.40;;;2.40;;
11490;SDS011;5802;52.832;4.758;2023-03-29T10:37:18;11.23;;;2.85;;
11490;SDS011;5802;52.832;4.758;2023-03-29T10:39:47;10.43;;;3.13;;
11490;SDS011;5802;52.832;4.758;2023-03-29T10:42:15;12.25;;;3.22;;
11490;SDS011;5802;52.832;4.758;2023-03-29T10:44:51;7.78;;;3.15;;
11490;SDS011;5802;52.832;4.758;2023-03-29T10:47:19;7.63;;;2.83;;
11490;SDS011;5802;52.832;4.758;2023-03-29T10:49:49;7.22;;;2.53;;
11490;SDS011;5802;52.832;4.758;2023-03-29T10:52:17;7.55;;;2.78;;
11490;SDS011;5802;52.832;4.758;2023-03-29T10:54:45;5.15;;;2.55;;
11490;SDS011;5802;52.832;4.758;2023-03-29T10:57:13;11.10;;;3.00;;
11490;SDS011;5802;52.832;4.758;2023-03-29T10:59:48;6.05;;;2.72;;
11490;SDS011;5802;52.832;4.758;2023-03-29T11:02:24;7.82;;;2.88;;
11490;SDS011;5802;52.832;4.758;2023-03-29T11:05:26;5.28;;;2.70;;
11490;SDS011;5802;52.832;4.758;2023-03-29T11:08:01;9.73;;;2.70;;
11490;SDS011;5802;52.832;4.758;2023-03-29T11:10:44;5.85;;;2.85;;
11490;SDS011;5802;52.832;4.758;2023-03-29T11:13:20;6.18;;;2.90;;
11490;SDS011;5802;52.832;4.758;2023-03-29T11:15:55;7.00;;;2.80;;
11490;SDS011;5802;52.832;4.758;2023-03-29T11:18:35;4.57;;;2.40;;
11490;SDS011;5802;52.832;4.758;2023-03-29T11:21:18;6.70;;;2.47;;
11490;SDS011;5802;52.832;4.758;2023-03-29T11:23:55;8.13;;;2.50;;
11490;SDS011;5802;52.832;4.758;2023-03-29T11:26:50;5.43;;;2.90;;
11490;SDS011;5802;52.832;4.758;2023-03-29T11:29:27;5.28;;;2.90;;
11490;SDS011;5802;52.832;4.758;2023-03-29T11:31:59;5.50;;;2.80;;
11490;SDS011;5802;52.832;4.758;2023-03-29T11:34:34;7.22;;;2.88;;
11490;SDS011;5802;52.832;4.758;2023-03-29T11:37:13;6.07;;;2.80;;
11490;SDS011;5802;52.832;4.758;2023-03-29T11:39:47;5.88;;;2.80;;
11490;SDS011;5802;52.832;4.758;2023-03-29T11:42:22;4.57;;;2.63;;
11490;SDS011;5802;52.832;4.758;2023-03-29T11:44:53;4.85;;;2.70;;
11490;SDS011;5802;52.832;4.758;2023-03-29T11:47:24;6.60;;;3.13;;
11490;SDS011;5802;52.832;4.758;2023-03-29T11:49:54;5.35;;;2.60;;
11490;SDS011;5802;52.832;4.758;2023-03-29T11:52:26;3.50;;;2.42;;
11490;SDS011;5802;52.832;4.758;2023-03-29T11:54:57;6.07;;;2.90;;
11490;SDS011;5802;52.832;4.758;2023-03-29T11:57:28;4.75;;;2.83;;
11490;SDS011;5802;52.832;4.758;2023-03-29T11:59:59;3.67;;;2.75;;
11490;SDS011;5802;52.832;4.758;2023-03-29T12:02:31;3.88;;;2.80;;
11490;SDS011;5802;52.832;4.758;2023-03-29T12:05:02;4.57;;;2.80;;
11490;SDS011;5802;52.832;4.758;2023-03-29T12:07:38;5.25;;;2.70;;
11490;SDS011;5802;52.832;4.758;2023-03-29T12:10:12;5.50;;;3.30;;
11490;SDS011;5802;52.832;4.758;2023-03-29T12:12:43;4.45;;;2.53;;
11490;SDS011;5802;52.832;4.758;2023-03-29T12:15:14;3.88;;;2.60;;
11490;SDS011;5802;52.832;4.758;2023-03-29T12:17:46;3.60;;;2.50;;
11490;SDS011;5802;52.832;4.758;2023-03-29T12:20:17;4.95;;;2.63;;
11490;SDS011;5802;52.832;4.758;2023-03-29T12:22:48;3.33;;;2.13;;
11490;SDS011;5802;52.832;4.758;2023-03-29T12:25:16;3.25;;;2.50;;
11490;SDS011;5802;52.832;4.758;2023-03-29T12:27:48;3.25;;;2.40;;
11490;SDS011;5802;52.832;4.758;2023-03-29T12:33:21;3.28;;;2.28;;
11490;SDS011;5802;52.832;4.758;2023-03-29T12:36:09;3.30;;;2.50;;
11490;SDS011;5802;52.832;4.758;2023-03-29T12:38:45;3.60;;;2.42;;
11490;SDS011;5802;52.832;4.758;2023-03-29T12:41:17;3.88;;;2.65;;
11490;SDS011;5802;52.832;4.758;2023-03-29T12:43:45;3.17;;;2.40;;
11490;SDS011;5802;52.832;4.758;2023-03-29T12:46:14;4.00;;;2.30;;
11490;SDS011;5802;52.832;4.758;2023-03-29T12:48:44;3.75;;;2.60;;
11490;SDS011;5802;52.832;4.758;2023-03-29T12:51:14;3.83;;;2.60;;
11490;SDS011;5802;52.832;4.758;2023-03-29T12:53:43;4.95;;;2.53;;
11490;SDS011;5802;52.832;4.758;2023-03-29T12:56:14;4.35;;;2.55;;
11490;SDS011;5802;52.832;4.758;2023-03-29T12:58:52;3.78;;;2.70;;
11490;SDS011;5802;52.832;4.758;2023-03-29T13:01:30;2.80;;;2.20;;
11490;SDS011;5802;52.832;4.758;2023-03-29T13:04:12;3.80;;;2.72;;
11490;SDS011;5802;52.832;4.758;2023-03-29T13:09:33;3.92;;;2.42;;
11490;SDS011;5802;52.832;4.758;2023-03-29T13:12:15;4.55;;;2.30;;
11490;SDS011;5802;52.832;4.758;2023-03-29T13:14:48;3.60;;;2.45;;
11490;SDS011;5802;52.832;4.758;2023-03-29T13:17:20;3.25;;;2.35;;
11490;SDS011;5802;52.832;4.758;2023-03-29T13:19:52;3.15;;;2.28;;
11490;SDS011;5802;52.832;4.758;2023-03-29T13:22:39;3.85;;;2.30;;
11490;SDS011;5802;52.832;4.758;2023-03-29T13:25:21;3.08;;;2.22;;
11490;SDS011;5802;52.832;4.758;2023-03-29T13:28:07;3.83;;;2.42;;
11490;SDS011;5802;52.832;4.758;2023-03-29T13:30:41;3.70;;;2.40;;
11490;SDS011;5802;52.832;4.758;2023-03-29T13:33:33;3.08;;;2.40;;
11490;SDS011;5802;52.832;4.758;2023-03-29T13:36:19;3.13;;;2.47;;
11490;SDS011;5802;52.832;4.758;2023-03-29T13:38:54;3.58;;;2.28;;
11490;SDS011;5802;52.832;4.758;2023-03-29T13:41:31;3.42;;;2.42;;
11490;SDS011;5802;52.832;4.758;2023-03-29T13:44:22;3.35;;;2.30;;
11490;SDS011;5802;52.832;4.758;2023-03-29T13:47:00;2.63;;;2.13;;
11490;SDS011;5802;52.832;4.758;2023-03-29T13:49:29;2.38;;;1.83;;
11490;SDS011;5802;52.832;4.758;2023-03-29T13:52:01;3.25;;;2.35;;
11490;SDS011;5802;52.832;4.758;2023-03-29T13:54:40;4.63;;;2.05;;
11490;SDS011;5802;52.832;4.758;2023-03-29T13:57:14;2.40;;;2.20;;
11490;SDS011;5802;52.832;4.758;2023-03-29T13:59:46;3.20;;;2.33;;
11490;SDS011;5802;52.832;4.758;2023-03-29T14:02:20;3.13;;;2.35;;
11490;SDS011;5802;52.832;4.758;2023-03-29T14:04:53;5.10;;;2.50;;
11490;SDS011;5802;52.832;4.758;2023-03-29T14:07:21;4.32;;;2.15;;
11490;SDS011;5802;52.832;4.758;2023-03-29T14:09:50;3.88;;;2.00;;
11490;SDS011;5802;52.832;4.758;2023-03-29T14:12:19;2.20;;;2.00;;
11490;SDS011;5802;52.832;4.758;2023-03-29T14:14:46;3.33;;;2.40;;
11490;SDS011;5802;52.832;4.758;2023-03-29T14:17:13;2.78;;;2.05;;
11490;SDS011;5802;52.832;4.758;2023-03-29T14:19:44;3.53;;;2.60;;
11490;SDS011;5802;52.832;4.758;2023-03-29T14:22:13;3.08;;;2.53;;
11490;SDS011;5802;52.832;4.758;2023-03-29T14:24:44;4.05;;;2.45;;
11490;SDS011;5802;52.832;4.758;2023-03-29T14:27:13;5.20;;;2.60;;
11490;SDS011;5802;52.832;4.758;2023-03-29T14:29:43;2.90;;;2.47;;
11490;SDS011;5802;52.832;4.758;2023-03-29T14:32:11;2.50;;;2.30;;
11490;SDS011;5802;52.832;4.758;2023-03-29T14:34:40;3.05;;;2.42;;
11490;SDS011;5802;52.832;4.758;2023-03-29T14:37:08;3.75;;;2.80;;
11490;SDS011;5802;52.832;4.758;2023-03-29T14:39:36;3.30;;;2.78;;
11490;SDS011;5802;52.832;4.758;2023-03-29T14:42:07;4.63;;;2.97;;
11490;SDS011;5802;52.832;4.758;2023-03-29T14:44:42;3.67;;;2.90;;
11490;SDS011;5802;52.832;4.758;2023-03-29T14:47:13;3.08;;;2.78;;
11490;SDS011;5802;52.832;4.758;2023-03-29T14:49:43;3.50;;;2.70;;
11490;SDS011;5802;52.832;4.758;2023-03-29T14:52:11;8.18;;;2.88;;
11490;SDS011;5802;52.832;4.758;2023-03-29T14:54:39;5.10;;;2.70;;
11490;SDS011;5802;52.832;4.758;2023-03-29T14:57:11;3.65;;;2.70;;
11490;SDS011;5802;52.832;4.758;2023-03-29T14:59:40;3.95;;;2.67;;
11490;SDS011;5802;52.832;4.758;2023-03-29T15:02:23;4.47;;;2.95;;
11490;SDS011;5802;52.832;4.758;2023-03-29T15:04:55;4.13;;;2.72;;
11490;SDS011;5802;52.832;4.758;2023-03-29T15:07:23;5.65;;;3.00;;
11490;SDS011;5802;52.832;4.758;2023-03-29T15:09:52;9.38;;;3.65;;
11490;SDS011;5802;52.832;4.758;2023-03-29T15:12:20;5.00;;;2.88;;
11490;SDS011;5802;52.832;4.758;2023-03-29T15:14:48;4.57;;;2.67;;
11490;SDS011;5802;52.832;4.758;2023-03-29T15:17:22;4.63;;;2.35;;
11490;SDS011;5802;52.832;4.758;2023-03-29T15:19:56;3.55;;;2.65;;
11490;SDS011;5802;52.832;4.758;2023-03-29T15:22:30;10.30;;;3.17;;
11490;SDS011;5802;52.832;4.758;2023-03-29T15:24:57;6.50;;;2.53;;